Time;durP1;ratioP1;P1;durP2;ratioP2;P2;SDS_P1;SDS_P2;PMS_P1;PMS_P2;Temp;Humidity;BMP_temperature;BMP_pressure;BME280_temperature;BME280_humidity;BME280_pressure;Samples;Min_cycle;Max_cycle;Signal;HPM_P1;HPM_P2
2024/01/15 00:00:48;;;;;;;10.65;6.30;;;18.40;83.10;;;;;;5012016;28;20061;-67
2024/01/15 00:03:13;;;;;;;12.25;6.13;;;18.20;83.10;;;;;;5013644;28;20042;-65
2024/01/15 00:05:39;;;;;;;10.57;5.90;;;18.10;83.00;;;;;;5013817;28;20092;-65
2024/01/15 00:08:05;;;;;;;12.30;5.80;;;18.00;83.00;;;;;;5012617;28;20081;-64
2024/01/15 00:10:31;;;;;;;11.35;5.97;;;;;;;;;;5012324;28;20080;-64
2024/01/15 00:12:57;;;;;;;9.98;5.13;;;18.10;83.10;;;;;;4997938;28;20053;-67
2024/01/15 00:15:23;;;;;;;10.68;5.53;;;18.20;83.30;;;;;;5028456;28;20488;-65
2024/01/15 00:17:49;;;;;;;8.95;5.07;;;18.00;83.20;;;;;;5007143;28;20111;-66
2024/01/15 00:20:15;;;;;;;10.55;5.60;;;17.90;83.20;;;;;;4981599;28;20053;-65
2024/01/15 00:22:41;;;;;;;11.05;5.38;;;;;;;;;;5013788;28;20133;-64
2024/01/15 00:25:07;;;;;;;9.15;4.93;;;17.80;83.20;;;;;;5011170;28;20054;-64
2024/01/15 00:27:33;;;;;;;9.93;4.78;;;17.80;83.30;;;;;;5026476;28;20108;-67
2024/01/15 00:29:59;;;;;;;14.30;5.63;;;17.70;83.40;;;;;;5011892;28;20085;-66
2024/01/15 00:32:24;;;;;;;9.68;4.75;;;17.60;83.50;;;;;;5012304;28;20041;-67
2024/01/15 00:34:50;;;;;;;9.60;4.72;;;17.50;83.70;;;;;;5013467;28;20536;-65
2024/01/15 00:37:17;;;;;;;9.25;4.60;;;;;;;;;;5044127;28;20045;-66
2024/01/15 00:39:43;;;;;;;13.98;4.60;;;17.50;82.50;;;;;;5011628;28;20558;-64
2024/01/15 00:42:09;;;;;;;10.05;4.50;;;;;;;;;;5010521;28;20053;-66
2024/01/15 00:44:35;;;;;;;9.82;4.57;;;17.00;82.20;;;;;;5042130;28;20045;-65
2024/01/15 00:47:01;;;;;;;9.82;4.22;;;17.20;84.30;;;;;;5009809;28;20129;-65
2024/01/15 00:49:27;;;;;;;10.45;4.57;;;16.80;84.40;;;;;;5011331;28;20184;-65
2024/01/15 00:51:53;;;;;;;10.32;4.57;;;;;;;;;;5011587;28;20125;-66
2024/01/15 00:54:19;;;;;;;11.02;4.45;;;16.80;84.80;;;;;;5011590;28;20049;-65
2024/01/15 00:56:45;;;;;;;8.60;3.90;;;;;;;;;;5009900;28;20052;-65
2024/01/15 00:59:14;;;;;;;9.40;3.95;;;;;;;;;;5011774;28;20396;-65
2024/01/15 01:01:42;;;;;;;7.93;3.80;;;;;;;;;;5011320;28;20050;-65
2024/01/15 01:04:09;;;;;;;8.90;3.50;;;16.50;82.60;;;;;;5011982;28;20050;-65
2024/01/15 01:06:35;;;;;;;8.60;3.47;;;16.40;85.30;;;;;;5043193;28;20392;-65
2024/01/15 01:09:01;;;;;;;7.45;3.38;;;16.40;85.50;;;;;;5010498;28;20034;-65
2024/01/15 01:11:27;;;;;;;6.65;3.30;;;;;;;;;;5012054;28;20128;-65
2024/01/15 01:13:53;;;;;;;8.35;3.15;;;15.90;85.60;;;;;;5011099;28;20164;-65
2024/01/15 01:16:19;;;;;;;8.10;3.38;;;;;;;;;;5011759;28;20844;-64
2024/01/15 01:18:45;;;;;;;6.00;2.92;;;;;;;;;;4993671;28;20061;-65
2024/01/15 01:21:11;;;;;;;7.32;2.85;;;15.70;86.10;;;;;;5012523;28;20404;-65
2024/01/15 01:23:36;;;;;;;8.10;3.00;;;16.00;86.40;;;;;;5043606;28;20041;-64
2024/01/15 01:26:02;;;;;;;6.15;2.90;;;15.70;83.90;;;;;;5011138;28;20046;-65
2024/01/15 01:28:28;;;;;;;8.38;3.30;;;;;;;;;;5010760;28;20132;-67
2024/01/15 01:30:55;;;;;;;7.50;3.10;;;;;;;;;;5010476;28;20045;-65
2024/01/15 01:33:21;;;;;;;7.10;2.75;;;;;;;;;;5043369;28;20260;-66
2024/01/15 01:35:47;;;;;;;7.32;3.10;;;;;;;;;;5010414;28;20038;-65
2024/01/15 01:38:13;;;;;;;7.28;3.13;;;;;;;;;;5010360;28;20045;-65
2024/01/15 01:40:39;;;;;;;7.85;3.20;;;;;;;;;;5011567;28;20119;-65
2024/01/15 01:43:05;;;;;;;7.90;3.05;;;15.30;84.20;;;;;;5043859;28;20056;-64
2024/01/15 01:45:31;;;;;;;6.97;2.90;;;15.10;87.50;;;;;;5042755;28;20038;-66
2024/01/15 01:47:57;;;;;;;8.45;2.80;;;;;;;;;;5011321;28;20056;-65
2024/01/15 01:50:23;;;;;;;9.30;2.75;;;15.20;87.80;;;;;;5008755;28;20061;-66
2024/01/15 01:52:49;;;;;;;6.93;2.60;;;15.10;88.00;;;;;;5010639;28;20056;-65
2024/01/15 01:55:14;;;;;;;6.50;2.25;;;15.20;88.10;;;;;;5043326;28;20103;-64
2024/01/15 01:57:40;;;;;;;6.53;2.70;;;15.00;88.00;;;;;;5010710;28;20103;-66
2024/01/15 02:00:07;;;;;;;5.47;2.47;;;15.10;86.00;;;;;;5014059;28;20381;-67
2024/01/15 02:02:33;;;;;;;6.57;2.40;;;;;;;;;;5015040;28;20049;-66
2024/01/15 02:04:59;;;;;;;6.57;2.83;;;14.90;88.10;;;;;;5047342;28;20543;-67
2024/01/15 02:07:24;;;;;;;8.27;3.08;;;14.90;88.30;;;;;;5046393;28;20064;-66
2024/01/15 02:09:50;;;;;;;6.38;2.50;;;;;;;;;;5013754;28;20042;-66
2024/01/15 02:12:17;;;;;;;7.28;2.58;;;;;;;;;;5018563;28;20411;-64
2024/01/15 02:14:43;;;;;;;7.00;2.50;;;;;;;;;;5031101;28;20403;-65
2024/01/15 02:17:09;;;;;;;8.82;2.30;;;;;;;;;;5012611;28;20188;-68
2024/01/15 02:19:35;;;;;;;7.15;2.60;;;;;;;;;;5012131;28;20519;-67
2024/01/15 02:22:01;;;;;;;6.07;2.33;;;;;;;;;;5047438;28;20046;-65
2024/01/15 02:24:27;;;;;;;6.75;2.40;;;;;;;;;;5015537;28;20042;-65
2024/01/15 02:26:53;;;;;;;11.00;2.92;;;;;;;;;;5015906;28;20092;-64
2024/01/15 02:29:19;;;;;;;9.05;2.72;;;14.60;88.50;;;;;;5045780;28;20244;-65
2024/01/15 02:31:45;;;;;;;6.43;2.30;;;14.60;88.90;;;;;;5013447;28;20128;-64
2024/01/15 02:34:11;;;;;;;7.55;2.58;;;;;;;;;;5011346;28;20049;-67
2024/01/15 02:36:37;;;;;;;8.05;2.47;;;14.30;88.90;;;;;;5012672;28;20046;-64
2024/01/15 02:39:03;;;;;;;7.40;2.40;;;;;;;;;;5013967;28;20050;-65
2024/01/15 02:41:29;;;;;;;5.90;2.10;;;;;;;;;;5012006;28;20060;-66
2024/01/15 02:43:55;;;;;;;7.95;2.60;;;14.30;89.10;;;;;;5013310;28;20496;-65
2024/01/15 02:46:21;;;;;;;6.60;2.40;;;;;;;;;;5012062;28;20046;-66
2024/01/15 02:48:46;;;;;;;8.30;2.60;;;14.40;89.30;;;;;;5014678;28;20054;-65
2024/01/15 02:51:13;;;;;;;8.48;2.40;;;;;;;;;;5014751;28;20100;-65
2024/01/15 02:53:39;;;;;;;8.48;2.72;;;;;;;;;;5011012;28;20473;-66
2024/01/15 02:56:05;;;;;;;7.22;2.50;;;14.50;89.60;;;;;;5013623;28;20052;-64
2024/01/15 02:58:31;;;;;;;6.55;2.47;;;14.30;89.50;;;;;;5012327;28;20046;-65
2024/01/15 03:00:57;;;;;;;8.90;2.55;;;;;;;;;;5012944;28;20046;-65
2024/01/15 03:03:23;;;;;;;6.82;2.40;;;14.20;89.60;;;;;;5026753;28;20411;-65
2024/01/15 03:05:49;;;;;;;7.93;2.58;;;;;;;;;;5014920;28;20061;-65
2024/01/15 03:08:15;;;;;;;7.18;2.40;;;14.20;89.70;;;;;;5014790;28;20111;-65
2024/01/15 03:10:40;;;;;;;7.47;2.20;;;14.30;89.90;;;;;;5013372;28;20038;-65
2024/01/15 03:13:06;;;;;;;7.70;2.42;;;14.20;89.90;;;;;;5045257;28;20050;-66
2024/01/15 03:15:32;;;;;;;6.00;2.35;;;14.10;90.00;;;;;;5013295;28;20077;-66
2024/01/15 03:17:57;;;;;;;6.32;2.28;;;14.10;90.00;;;;;;5046290;28;20048;-66
2024/01/15 03:20:23;;;;;;;8.98;2.45;;;14.20;90.10;;;;;;5011664;28;20046;-64
2024/01/15 03:22:50;;;;;;;5.97;2.30;;;;;;;;;;5002410;28;20192;-64
2024/01/15 03:25:15;;;;;;;7.22;2.13;;;14.10;90.10;;;;;;5012727;28;20054;-65
2024/01/15 03:27:41;;;;;;;7.07;2.58;;;14.10;90.10;;;;;;5013266;28;20038;-64
2024/01/15 03:30:07;;;;;;;5.57;2.13;;;14.10;90.10;;;;;;5012177;28;20386;-66
2024/01/15 03:32:33;;;;;;;7.45;2.35;;;14.10;90.10;;;;;;5012813;28;20480;-65
2024/01/15 03:35:00;;;;;;;5.53;2.65;;;;;;;;;;5012839;28;20060;-66
2024/01/15 03:37:26;;;;;;;7.50;2.53;;;14.20;90.10;;;;;;5043994;28;20404;-65
2024/01/15 03:39:51;;;;;;;6.70;2.25;;;14.20;88.60;;;;;;5044568;28;20048;-65
2024/01/15 03:42:17;;;;;;;5.55;2.30;;;14.10;90.20;;;;;;5012159;28;20050;-64
2024/01/15 03:44:43;;;;;;;6.93;2.20;;;;;;;;;;5012511;28;20046;-67
2024/01/15 03:47:09;;;;;;;7.28;2.40;;;14.00;89.40;;;;;;5028867;28;20065;-64
2024/01/15 03:49:35;;;;;;;6.22;1.90;;;;;;;;;;5011749;28;20579;-64
2024/01/15 03:52:01;;;;;;;6.63;2.17;;;14.00;90.10;;;;;;5011975;28;20484;-64
2024/01/15 03:54:27;;;;;;;6.32;2.22;;;14.10;90.10;;;;;;5012023;28;20034;-65
2024/01/15 03:56:52;;;;;;;6.10;2.10;;;14.10;89.40;;;;;;5013534;28;20038;-65
2024/01/15 03:59:18;;;;;;;6.80;2.20;;;14.10;90.20;;;;;;5027909;28;20045;-67
2024/01/15 04:01:50;;;;;;;6.70;2.15;;;14.00;87.90;;;;;;5010880;28;20046;-65
2024/01/15 04:04:17;;;;;;;5.97;2.28;;;14.00;89.80;;;;;;4993757;28;20507;-65
2024/01/15 04:06:42;;;;;;;6.75;2.03;;;14.00;90.30;;;;;;4995798;28;20045;-65
2024/01/15 04:09:08;;;;;;;6.22;2.20;;;14.00;90.30;;;;;;5013173;28;20775;-64
2024/01/15 04:11:34;;;;;;;7.03;2.10;;;14.00;90.40;;;;;;5011668;28;20038;-65
2024/01/15 04:14:00;;;;;;;8.23;2.17;;;14.00;90.40;;;;;;5013629;28;20045;-65
2024/01/15 04:16:26;;;;;;;7.07;2.20;;;;;;;;;;5011155;28;20136;-65
2024/01/15 04:18:52;;;;;;;7.15;2.50;;;;;;;;;;5013116;28;20140;-66
2024/01/15 04:21:18;;;;;;;8.13;2.30;;;13.90;90.30;;;;;;5010005;28;20061;-64
2024/01/15 04:23:44;;;;;;;6.22;2.22;;;;;;;;;;5011623;28;20130;-66
2024/01/15 04:26:10;;;;;;;6.50;2.22;;;13.90;90.40;;;;;;5011859;28;20103;-64
2024/01/15 04:28:36;;;;;;;6.05;2.25;;;;;;;;;;5028792;28;20057;-65
2024/01/15 04:31:02;;;;;;;5.97;2.22;;;;;;;;;;5044302;28;20160;-64
2024/01/15 04:33:28;;;;;;;5.80;2.42;;;13.90;90.50;;;;;;5043453;28;20041;-65
2024/01/15 04:35:54;;;;;;;8.75;2.20;;;13.90;90.40;;;;;;5012833;28;20096;-64
2024/01/15 04:38:19;;;;;;;6.25;2.10;;;13.80;90.50;;;;;;5013181;28;20096;-64
2024/01/15 04:40:45;;;;;;;6.65;2.35;;;13.80;90.60;;;;;;5013123;28;20128;-65
2024/01/15 04:43:11;;;;;;;7.25;1.98;;;;;;;;;;5010791;28;20111;-67
2024/01/15 04:45:37;;;;;;;6.80;2.20;;;;;;;;;;5012652;28;20056;-66
2024/01/15 04:48:03;;;;;;;7.03;2.33;;;13.70;90.30;;;;;;5012327;28;20128;-65
2024/01/15 04:50:29;;;;;;;5.68;1.98;;;13.60;90.30;;;;;;5011579;28;20053;-65
2024/01/15 04:52:55;;;;;;;5.10;1.70;;;13.80;90.30;;;;;;5042823;28;20045;-64
2024/01/15 04:55:21;;;;;;;6.25;2.05;;;13.80;90.30;;;;;;5011406;28;20503;-64
2024/01/15 04:57:47;;;;;;;6.32;1.80;;;;;;;;;;5011320;28;20129;-64
2024/01/15 05:00:14;;;;;;;5.03;1.65;;;;;;;;;;5043615;28;20112;-65
2024/01/15 05:02:40;;;;;;;5.88;1.90;;;;;;;;;;5012723;28;20088;-65
2024/01/15 05:05:06;;;;;;;5.13;1.73;;;;;;;;;;5011464;28;20080;-66
2024/01/15 05:07:32;;;;;;;7.82;1.88;;;13.80;90.20;;;;;;5044055;28;20049;-66
2024/01/15 05:09:58;;;;;;;6.07;1.90;;;;;;;;;;5010288;28;20558;-65
2024/01/15 05:12:24;;;;;;;5.82;1.80;;;13.80;90.10;;;;;;5011861;28;20450;-65
2024/01/15 05:14:50;;;;;;;5.07;1.67;;;13.80;90.40;;;;;;4993617;28;20050;-64
2024/01/15 05:17:16;;;;;;;5.85;1.50;;;13.80;90.40;;;;;;4995256;28;20050;-64
2024/01/15 05:19:42;;;;;;;6.68;1.90;;;;;;;;;;5012162;28;20053;-66
2024/01/15 05:22:08;;;;;;;6.85;1.73;;;;;;;;;;5011415;28;20448;-64
2024/01/15 05:24:34;;;;;;;5.00;1.83;;;;;;;;;;5011827;28;20392;-65
2024/01/15 05:27:00;;;;;;;5.57;1.90;;;13.70;90.50;;;;;;5011945;28;20056;-65
2024/01/15 05:29:26;;;;;;;4.22;1.90;;;13.60;90.60;;;;;;5009176;28;20071;-64
2024/01/15 05:31:52;;;;;;;6.18;1.77;;;;;;;;;;5009732;28;20488;-65
2024/01/15 05:34:18;;;;;;;6.38;1.98;;;13.70;90.40;;;;;;5009052;28;20037;-66
2024/01/15 05:36:47;;;;;;;6.00;1.88;;;;;;;;;;5043396;28;20057;-65
2024/01/15 05:39:13;;;;;;;4.50;1.35;;;13.80;90.50;;;;;;5008275;28;20049;-66
2024/01/15 05:41:39;;;;;;;5.07;1.52;;;13.60;90.50;;;;;;5011509;28;20128;-64
2024/01/15 05:44:05;;;;;;;4.53;1.45;;;;;;;;;;5026413;28;20175;-65
2024/01/15 05:46:31;;;;;;;6.40;1.88;;;13.60;90.60;;;;;;5026480;28;20518;-65
2024/01/15 05:48:57;;;;;;;5.82;1.35;;;;;;;;;;5042610;28;20093;-65
2024/01/15 05:51:23;;;;;;;7.78;2.17;;;;;;;;;;5009737;28;20077;-65
2024/01/15 05:53:49;;;;;;;5.60;1.60;;;13.60;88.80;;;;;;5010465;28;20050;-65
2024/01/15 05:56:15;;;;;;;4.32;1.52;;;13.60;90.70;;;;;;5010133;28;20127;-64
2024/01/15 05:58:41;;;;;;;4.75;1.70;;;13.60;90.70;;;;;;5041691;28;20416;-65
2024/01/15 06:01:07;;;;;;;4.72;1.60;;;13.50;90.80;;;;;;5010704;28;20038;-64
2024/01/15 06:03:33;;;;;;;5.53;1.45;;;;;;;;;;5042223;28;20038;-65
2024/01/15 06:05:59;;;;;;;5.03;1.85;;;13.50;90.90;;;;;;5011551;28;20451;-65
2024/01/15 06:08:26;;;;;;;5.07;1.73;;;13.50;90.90;;;;;;5042429;28;20096;-65
2024/01/15 06:10:52;;;;;;;6.15;1.90;;;13.50;90.90;;;;;;5011409;28;20046;-64
2024/01/15 06:13:18;;;;;;;6.10;1.90;;;;;;;;;;5041005;28;20506;-65
2024/01/15 06:15:44;;;;;;;5.20;1.75;;;13.60;91.00;;;;;;5010173;28;20441;-65
2024/01/15 06:18:10;;;;;;;6.10;1.98;;;13.30;90.90;;;;;;5012074;28;20038;-64
2024/01/15 06:20:35;;;;;;;4.55;1.65;;;13.30;90.90;;;;;;5011378;28;20038;-65
2024/01/15 06:23:01;;;;;;;4.32;1.52;;;;;;;;;;5010499;28;20046;-65
2024/01/15 06:25:27;;;;;;;5.30;1.67;;;13.30;90.90;;;;;;5010367;28;20049;-65
2024/01/15 06:27:53;;;;;;;5.28;1.63;;;13.30;91.00;;;;;;5011901;28;20061;-65
2024/01/15 06:30:19;;;;;;;8.10;2.20;;;13.40;90.90;;;;;;5010095;28;20519;-64
2024/01/15 06:32:45;;;;;;;5.85;1.90;;;;;;;;;;5008487;28;20388;-67
2024/01/15 06:35:11;;;;;;;6.70;2.00;;;13.10;90.80;;;;;;5009883;28;20057;-64
2024/01/15 06:37:37;;;;;;;6.85;2.30;;;;;;;;;;5010440;28;20054;-64
2024/01/15 06:40:05;;;;;;;7.80;1.98;;;;;;;;;;5011035;28;20054;-64
2024/01/15 06:42:31;;;;;;;6.03;1.60;;;13.20;90.90;;;;;;5010413;28;20044;-64
2024/01/15 06:44:57;;;;;;;5.00;1.73;;;13.20;90.90;;;;;;5043385;28;20042;-64
2024/01/15 06:47:23;;;;;;;6.85;1.98;;;;;;;;;;5014799;28;20143;-65
2024/01/15 06:49:51;;;;;;;5.80;1.67;;;;;;;;;;5014963;28;20516;-64
2024/01/15 06:52:17;;;;;;;4.95;1.50;;;13.20;90.80;;;;;;5010055;28;20041;-64
2024/01/15 06:54:43;;;;;;;7.30;1.80;;;;;;;;;;5013271;28;20108;-65
2024/01/15 06:57:09;;;;;;;7.15;2.08;;;13.00;90.50;;;;;;5014762;28;20496;-65
2024/01/15 06:59:35;;;;;;;6.90;2.00;;;13.10;90.80;;;;;;5013234;28;20104;-64
2024/01/15 07:02:01;;;;;;;5.63;1.80;;;13.20;90.80;;;;;;5016185;28;20042;-65
2024/01/15 07:04:27;;;;;;;7.25;1.58;;;13.20;90.80;;;;;;5026162;28;20084;-65
2024/01/15 07:06:53;;;;;;;6.15;1.90;;;13.10;90.80;;;;;;5029942;28;20085;-65
2024/01/15 07:09:19;;;;;;;6.15;1.77;;;;;;;;;;5013804;28;20053;-65
2024/01/15 07:11:48;;;;;;;5.20;1.67;;;13.10;90.80;;;;;;5014207;28;20469;-64
2024/01/15 07:14:15;;;;;;;6.18;1.95;;;;;;;;;;4996199;28;20057;-64
2024/01/15 07:16:41;;;;;;;5.55;1.98;;;13.10;90.90;;;;;;5014559;28;20034;-64
2024/01/15 07:19:07;;;;;;;7.93;1.95;;;13.20;90.90;;;;;;5046796;28;20424;-64
2024/01/15 07:21:33;;;;;;;6.50;2.05;;;13.10;90.90;;;;;;5014930;28;20073;-64
2024/01/15 07:23:59;;;;;;;5.70;2.20;;;;;;;;;;5012283;28;20092;-64
2024/01/15 07:26:25;;;;;;;7.18;2.10;;;13.10;90.80;;;;;;5012625;28;20058;-63
2024/01/15 07:28:50;;;;;;;6.88;2.00;;;13.10;90.90;;;;;;5046297;28;20130;-64
2024/01/15 07:31:17;;;;;;;6.40;1.90;;;13.30;90.90;;;;;;5014741;28;20773;-64
2024/01/15 07:33:43;;;;;;;6.63;2.00;;;13.00;90.80;;;;;;5028908;28;20133;-63
2024/01/15 07:36:09;;;;;;;6.38;1.85;;;;;;;;;;5044706;28;20145;-64
2024/01/15 07:38:35;;;;;;;9.65;1.95;;;13.10;89.10;;;;;;5012443;28;20045;-64
2024/01/15 07:41:01;;;;;;;6.00;2.05;;;;;;;;;;5013630;28;20057;-65
2024/01/15 07:43:28;;;;;;;6.30;2.20;;;13.00;90.70;;;;;;5012104;28;20038;-67
2024/01/15 07:45:53;;;;;;;5.43;1.98;;;12.80;90.20;;;;;;5013701;28;20058;-69
2024/01/15 07:48:20;;;;;;;6.55;2.00;;;13.00;90.70;;;;;;5044697;28;20076;-64
2024/01/15 07:50:46;;;;;;;6.85;2.17;;;13.10;90.10;;;;;;5011642;28;20058;-64
2024/01/15 07:53:11;;;;;;;7.82;2.45;;;13.00;90.70;;;;;;5012856;28;20050;-64
2024/01/15 07:55:37;;;;;;;7.25;2.13;;;12.90;90.60;;;;;;5012636;28;20053;-64
2024/01/15 07:58:04;;;;;;;7.50;1.90;;;13.00;88.60;;;;;;5006628;28;20038;-65
2024/01/15 08:00:32;;;;;;;8.25;1.92;;;;;;;;;;5012826;28;20046;-66
2024/01/15 08:02:59;;;;;;;8.18;2.10;;;13.00;90.70;;;;;;5012742;28;20063;-64
2024/01/15 08:05:25;;;;;;;5.50;1.85;;;;;;;;;;5028040;28;20057;-69
2024/01/15 08:07:51;;;;;;;6.05;2.25;;;;;;;;;;5038768;28;20033;-67
2024/01/15 08:10:17;;;;;;;6.53;1.80;;;12.90;90.60;;;;;;5039242;28;20504;-63
2024/01/15 08:12:43;;;;;;;6.40;1.80;;;12.90;90.60;;;;;;5012984;28;20124;-64
2024/01/15 08:15:09;;;;;;;4.30;1.60;;;12.90;90.60;;;;;;5013316;28;20077;-64
2024/01/15 08:17:36;;;;;;;6.60;1.98;;;;;;;;;;5013002;28;20105;-64
2024/01/15 08:20:02;;;;;;;6.22;1.77;;;;;;;;;;5025958;28;20061;-64
2024/01/15 08:22:28;;;;;;;5.63;1.83;;;13.00;90.60;;;;;;5010616;28;20042;-64
2024/01/15 08:24:55;;;;;;;7.25;1.83;;;13.00;90.60;;;;;;5011911;28;20048;-65
2024/01/15 08:27:21;;;;;;;7.38;2.10;;;12.90;89.50;;;;;;5010473;28;20053;-64
2024/01/15 08:29:47;;;;;;;5.97;1.67;;;;;;;;;;5015943;28;20048;-65
2024/01/15 08:32:15;;;;;;;8.65;1.75;;;12.90;90.60;;;;;;5022878;28;20080;-65
2024/01/15 08:34:42;;;;;;;6.05;2.00;;;12.80;90.10;;;;;;5025871;28;20049;-65
2024/01/15 08:37:08;;;;;;;5.88;1.73;;;;;;;;;;5022712;28;20046;-67
2024/01/15 08:39:34;;;;;;;5.78;1.83;;;12.90;90.50;;;;;;5010526;28;20045;-65
2024/01/15 08:42:00;;;;;;;5.68;1.70;;;;;;;;;;5011425;28;20042;-64
2024/01/15 08:44:26;;;;;;;5.53;1.50;;;;;;;;;;5011275;28;20045;-64
2024/01/15 08:46:52;;;;;;;6.88;2.08;;;;;;;;;;4994285;28;20548;-64
2024/01/15 08:49:19;;;;;;;7.20;1.90;;;;;;;;;;5009074;28;20152;-64
2024/01/15 08:51:45;;;;;;;4.97;1.77;;;;;;;;;;5010918;28;20446;-64
2024/01/15 08:54:11;;;;;;;4.90;1.73;;;;;;;;;;5010575;28;20041;-63
2024/01/15 08:56:38;;;;;;;6.03;2.08;;;13.00;90.50;;;;;;5010119;28;20033;-65
2024/01/15 08:59:04;;;;;;;6.35;1.80;;;13.00;90.50;;;;;;5009489;28;20065;-66
2024/01/15 09:01:30;;;;;;;6.80;1.90;;;13.00;90.40;;;;;;5042610;28;20045;-65
2024/01/15 09:03:56;;;;;;;9.70;1.75;;;12.80;87.70;;;;;;5012973;28;20499;-64
2024/01/15 09:06:22;;;;;;;6.93;2.20;;;;;;;;;;5027162;28;20041;-64
2024/01/15 09:08:49;;;;;;;5.15;1.77;;;12.90;90.30;;;;;;5023821;28;20042;-64
2024/01/15 09:11:15;;;;;;;6.32;1.80;;;;;;;;;;5011060;28;20041;-65
2024/01/15 09:13:41;;;;;;;5.30;1.75;;;;;;;;;;5010275;28;20045;-64
2024/01/15 09:16:07;;;;;;;7.53;2.17;;;13.10;90.40;;;;;;4994418;28;20053;-65
2024/01/15 09:18:33;;;;;;;6.93;1.90;;;12.90;90.30;;;;;;5010175;28;20457;-65
2024/01/15 09:21:00;;;;;;;5.30;1.60;;;;;;;;;;5011126;28;20085;-65
2024/01/15 09:23:25;;;;;;;6.60;2.13;;;13.00;90.30;;;;;;5009223;28;20045;-64
2024/01/15 09:25:52;;;;;;;8.02;2.05;;;;;;;;;;5010745;28;20042;-68
2024/01/15 09:28:18;;;;;;;7.55;2.05;;;13.00;90.30;;;;;;5009585;28;20162;-65
2024/01/15 09:30:45;;;;;;;6.07;2.20;;;13.10;90.30;;;;;;5024524;28;20149;-65
2024/01/15 09:33:11;;;;;;;5.55;1.65;;;12.90;90.20;;;;;;5008781;28;20116;-65
2024/01/15 09:35:37;;;;;;;7.20;1.95;;;;;;;;;;5010531;28;20128;-65
2024/01/15 09:38:03;;;;;;;6.15;2.00;;;13.00;90.20;;;;;;5008428;28;20046;-64
2024/01/15 09:40:31;;;;;;;6.13;1.90;;;13.00;88.20;;;;;;4993287;28;20052;-64
2024/01/15 09:42:57;;;;;;;7.55;1.90;;;12.90;90.20;;;;;;5009124;28;20420;-64
2024/01/15 09:45:23;;;;;;;7.68;2.10;;;13.20;90.20;;;;;;4992989;28;20053;-64
2024/01/15 09:47:49;;;;;;;6.25;2.00;;;;;;;;;;5004749;28;20057;-63
2024/01/15 09:50:16;;;;;;;6.22;1.80;;;;;;;;;;5009230;28;20054;-65
2024/01/15 09:52:42;;;;;;;7.20;1.70;;;;;;;;;;5007750;28;20038;-65
2024/01/15 09:55:08;;;;;;;5.13;1.80;;;13.10;90.30;;;;;;5009219;28;20049;-63
2024/01/15 09:57:34;;;;;;;6.80;2.15;;;12.90;90.40;;;;;;5010033;28;20061;-64
2024/01/15 10:00:00;;;;;;;7.15;1.65;;;13.00;90.40;;;;;;4993179;28;20049;-64
2024/01/15 10:02:27;;;;;;;6.97;1.52;;;;;;;;;;4993151;28;20568;-64
2024/01/15 10:04:54;;;;;;;6.07;1.60;;;;;;;;;;5008784;28;20133;-64
2024/01/15 10:07:21;;;;;;;16.75;3.03;;;;;;;;;;5030119;28;20045;-64
2024/01/15 10:09:48;;;;;;;35.28;5.68;;;;;;;;;;5009089;28;20053;-66
2024/01/15 10:12:14;;;;;;;58.90;11.07;;;13.10;90.60;;;;;;5010245;28;20053;-64
2024/01/15 10:14:41;;;;;;;49.03;23.98;;;;;;;;;;4993494;28;20396;-64
2024/01/15 10:19:50;;;;;;;42.72;18.00;;;13.50;90.80;;;;;;5143196;27;1399632;-63
2024/01/15 10:22:17;;;;;;;44.35;16.98;;;13.90;90.40;;;;;;5128836;27;20075;-63
2024/01/15 10:24:43;;;;;;;76.63;19.92;;;;;;;;;;5151912;27;20054;-63
2024/01/15 10:27:10;;;;;;;34.67;16.48;;;15.10;88.70;;;;;;5129426;27;20046;-63
2024/01/15 10:29:36;;;;;;;33.67;15.70;;;;;;;;;;5131943;27;20042;-63
2024/01/15 10:32:03;;;;;;;31.80;14.10;;;;;;;;;;5131147;27;20107;-63
2024/01/15 10:34:30;;;;;;;22.50;12.23;;;15.80;86.30;;;;;;5151240;27;20035;-64
2024/01/15 10:36:56;;;;;;;31.52;16.55;;;15.80;84.20;;;;;;5148718;27;20047;-63
2024/01/15 10:39:23;;;;;;;45.35;34.47;;;;;;;;;;5127732;28;20040;-64
2024/01/15 10:41:50;;;;;;;37.45;26.15;;;;;;;;;;5113881;27;20039;-64
2024/01/15 10:44:17;;;;;;;28.88;23.40;;;;;;;;;;5149020;27;20113;-64
2024/01/15 10:46:44;;;;;;;33.40;24.58;;;17.20;80.70;;;;;;5129424;27;20047;-66
2024/01/15 10:49:10;;;;;;;34.53;26.60;;;;;;;;;;5138218;27;20051;-64
2024/01/15 10:51:37;;;;;;;36.50;26.92;;;17.50;82.90;;;;;;5129705;27;20042;-63
2024/01/15 10:54:03;;;;;;;34.65;26.15;;;;;;;;;;5131332;27;20053;-63
2024/01/15 10:56:29;;;;;;;35.67;23.52;;;17.50;80.10;;;;;;5124243;27;20122;-64
2024/01/15 10:58:55;;;;;;;36.30;22.98;;;17.40;81.90;;;;;;5148812;27;20054;-64
2024/01/15 11:01:22;;;;;;;32.72;21.25;;;;;;;;;;5130547;27;20039;-64
2024/01/15 11:03:47;;;;;;;35.70;22.00;;;17.20;82.20;;;;;;5113885;27;20485;-65
2024/01/15 11:06:22;;;;;;;37.22;24.10;;;17.40;77.70;;;;;;5130723;27;20043;-65
2024/01/15 11:08:52;;;;;;;37.08;24.42;;;17.70;77.70;;;;;;5124632;27;20115;-65
2024/01/15 11:11:18;;;;;;;32.55;23.20;;;17.80;81.80;;;;;;5132322;27;20109;-66
2024/01/15 11:13:44;;;;;;;29.95;22.40;;;;;;;;;;5131862;27;20055;-67
2024/01/15 11:16:11;;;;;;;34.60;22.20;;;18.00;81.60;;;;;;5116576;27;20042;-66
2024/01/15 11:19:01;;;;;;;35.97;21.40;;;17.80;78.60;;;;;;5115531;27;20075;-65
2024/01/15 11:21:29;;;;;;;36.25;21.27;;;17.80;81.70;;;;;;5148928;27;20492;-65
2024/01/15 11:23:56;;;;;;;30.33;20.05;;;17.90;81.90;;;;;;5162992;27;20054;-65
2024/01/15 11:26:38;;;;;;;30.15;18.27;;;17.70;77.80;;;;;;5144002;27;20058;-66
2024/01/15 11:29:09;;;;;;;36.03;16.65;;;17.70;77.60;;;;;;5119808;27;20089;-66
2024/01/15 11:31:38;;;;;;;28.48;15.93;;;17.90;81.70;;;;;;5118393;27;20039;-65
2024/01/15 11:34:05;;;;;;;22.08;14.43;;;;;;;;;;5135700;27;20053;-66
2024/01/15 11:36:50;;;;;;;21.35;14.27;;;;;;;;;;5116234;27;20055;-66
2024/01/15 11:39:27;;;;;;;27.30;14.25;;;18.00;77.40;;;;;;5124292;27;20047;-67
2024/01/15 11:41:57;;;;;;;19.63;12.95;;;;;;;;;;5132100;27;20076;-68
2024/01/15 11:44:23;;;;;;;17.88;12.52;;;17.90;81.70;;;;;;5104488;27;20077;-65
2024/01/15 11:47:08;;;;;;;15.35;11.65;;;17.60;78.90;;;;;;5069378;28;20079;-65
2024/01/15 11:50:04;;;;;;;14.95;10.80;;;17.60;77.80;;;;;;5092163;27;20080;-69
2024/01/15 11:52:34;;;;;;;19.17;10.90;;;17.50;77.80;;;;;;5130102;27;20054;-67
2024/01/15 11:55:03;;;;;;;18.13;10.27;;;;;;;;;;5116509;27;20050;-66
2024/01/15 11:57:55;;;;;;;15.63;10.18;;;;;;;;;;5113817;27;20039;-66
2024/01/15 12:00:22;;;;;;;12.77;9.00;;;17.10;82.80;;;;;;5108117;27;20051;-66
2024/01/15 12:02:48;;;;;;;13.10;9.00;;;17.10;83.00;;;;;;5062488;27;20138;-65
2024/01/15 12:05:15;;;;;;;13.75;8.48;;;16.90;83.10;;;;;;5134807;27;20063;-67
2024/01/15 12:07:46;;;;;;;14.23;10.93;;;16.90;83.10;;;;;;5114701;27;20090;-66
2024/01/15 12:10:21;;;;;;;15.80;11.30;;;16.80;80.90;;;;;;5114052;27;20047;-66
2024/01/15 12:13:00;;;;;;;11.18;9.63;;;;;;;;;;5113878;27;20103;-65
2024/01/15 12:15:29;;;;;;;13.60;10.60;;;16.80;83.80;;;;;;5098767;27;20055;-65
2024/01/15 12:18:05;;;;;;;14.55;9.45;;;;;;;;;;5132411;27;20050;-66
2024/01/15 12:20:31;;;;;;;14.52;9.43;;;;;;;;;;5122573;27;20105;-66
2024/01/15 12:22:57;;;;;;;10.70;8.90;;;16.90;83.30;;;;;;5114571;27;20052;-66
2024/01/15 12:25:24;;;;;;;11.85;7.75;;;17.10;83.50;;;;;;5097575;27;20042;-65
2024/01/15 12:27:51;;;;;;;13.73;7.93;;;17.20;83.50;;;;;;5098553;27;20047;-65
2024/01/15 12:30:17;;;;;;;11.48;7.20;;;;;;;;;;5082500;27;20051;-66
2024/01/15 12:32:43;;;;;;;10.82;6.68;;;17.10;83.60;;;;;;5114862;27;20039;-65
2024/01/15 12:35:09;;;;;;;9.23;6.28;;;17.00;83.60;;;;;;5113184;27;20513;-71
2024/01/15 12:37:36;;;;;;;8.27;6.28;;;16.90;80.80;;;;;;5127995;27;20100;-69
2024/01/15 12:40:06;;;;;;;9.25;6.35;;;16.90;81.00;;;;;;5115175;27;20381;-71
2024/01/15 12:42:32;;;;;;;9.00;5.53;;;;;;;;;;5114453;27;20043;-74
2024/01/15 12:44:59;;;;;;;8.60;5.65;;;16.80;84.10;;;;;;5133063;27;20050;-65
2024/01/15 12:47:26;;;;;;;8.50;5.05;;;;;;;;;;5098360;27;20054;-66
2024/01/15 12:49:55;;;;;;;6.82;4.97;;;16.90;84.40;;;;;;5128354;27;20046;-66
2024/01/15 12:52:24;;;;;;;9.00;4.75;;;;;;;;;;5103205;27;20046;-65
2024/01/15 12:54:50;;;;;;;8.40;4.80;;;16.70;84.40;;;;;;5124051;27;20047;-66
2024/01/15 12:57:16;;;;;;;7.03;4.40;;;16.80;81.80;;;;;;5133222;27;20099;-66
2024/01/15 12:59:44;;;;;;;6.45;4.13;;;;;;;;;;5133174;27;20126;-65
2024/01/15 13:02:11;;;;;;;7.05;4.18;;;16.80;84.50;;;;;;5143745;27;20039;-66
2024/01/15 13:04:38;;;;;;;6.15;3.97;;;;;;;;;;5115337;27;20388;-66
2024/01/15 13:07:04;;;;;;;6.60;3.60;;;16.80;83.70;;;;;;5132413;27;20043;-66
2024/01/15 13:09:30;;;;;;;8.30;3.70;;;16.80;84.60;;;;;;5113936;27;20051;-69
2024/01/15 13:11:57;;;;;;;5.53;3.22;;;16.60;81.90;;;;;;5132422;27;20070;-71
2024/01/15 13:14:23;;;;;;;4.70;2.90;;;;;;;;;;5130800;27;20047;-68
2024/01/15 13:16:49;;;;;;;6.93;3.10;;;16.70;83.50;;;;;;5132920;27;20499;-66
2024/01/15 13:19:16;;;;;;;6.50;3.42;;;;;;;;;;5121702;27;20130;-66
2024/01/15 13:21:42;;;;;;;24.65;4.72;;;16.90;85.20;;;;;;5115032;27;20052;-66